Time;durP1;ratioP1;P1;durP2;ratioP2;P2;SDS_P1;SDS_P2;PMS_P1;PMS_P2;Temp;Humidity;BMP_temperature;BMP_pressure;BME280_temperature;BME280_humidity;BME280_pressure;Samples;Min_cycle;Max_cycle;Signal;HPM_P1;HPM_P2
2022/03/12 00:00:42;;;;;;;;;;;;;;;9.58;100.00;101199.44;5021069;28;19922;-72
2022/03/12 00:03:08;;;;;;;;;;;;;;;9.50;100.00;101206.75;5019507;28;19925;-72
2022/03/12 00:05:35;;;;;;;;;;;;;;;9.56;100.00;101198.59;5021933;28;19923;-72
2022/03/12 00:08:02;;;;;;;;;;;;;;;9.44;100.00;101212.25;5026772;28;20425;-72
2022/03/12 00:10:28;;;;;;;;;;;;;;;9.40;100.00;101210.63;5022581;28;19921;-72
2022/03/12 00:12:53;;;;;;;;;;;;;;;9.50;100.00;101209.41;5023111;28;19924;-72
2022/03/12 00:15:19;;;;;;;;;;;;;;;9.43;100.00;101197.25;5022173;28;19917;-73
2022/03/12 00:17:45;;;;;;;;;;;;;;;9.51;100.00;101205.84;5017746;28;20327;-72
2022/03/12 00:20:12;;;;;;;;;;;;;;;9.46;100.00;101210.41;5020599;28;20008;-72
2022/03/12 00:22:45;;;;;;;;;;;;;;;9.39;100.00;101211.53;5017885;28;19983;-72
2022/03/12 00:25:11;;;;;;;;;;;;;;;9.53;100.00;101220.78;5019743;28;20064;-72
2022/03/12 00:27:39;;;;;;;;;;;;;;;9.42;100.00;101222.03;5021202;28;20429;-72
2022/03/12 00:30:04;;;;;;;;;;;;;;;9.39;100.00;101224.78;5025694;28;19956;-72
2022/03/12 00:32:29;;;;;;;;;;;;;;;9.28;100.00;101220.69;5022155;28;20333;-72
2022/03/12 00:34:55;;;;;;;;;;;;;;;9.31;100.00;101217.94;5020776;28;20362;-72
2022/03/12 00:37:21;;;;;;;;;;;;;;;9.27;100.00;101232.22;5018467;28;19992;-72
2022/03/12 00:39:47;;;;;;;;;;;;;;;9.31;100.00;101233.84;5019989;28;19917;-72
2022/03/12 00:42:13;;;;;;;;;;;;;;;9.30;100.00;101234.78;5023184;28;19925;-72
2022/03/12 00:44:38;;;;;;;;;;;;;;;9.46;100.00;101228.97;5022932;28;19918;-72
2022/03/12 00:47:03;;;;;;;;;;;;;;;9.41;100.00;101228.28;5023797;28;19926;-72
2022/03/12 00:49:29;;;;;;;;;;;;;;;9.28;100.00;101246.34;5021080;28;20313;-72
2022/03/12 00:51:54;;;;;;;;;;;;;;;9.26;100.00;101241.06;5018887;28;19972;-72
2022/03/12 00:54:19;;;;;;;;;;;;;;;9.22;100.00;101238.56;5017770;28;19918;-71
2022/03/12 00:56:44;;;;;;;;;;;;;;;9.21;100.00;101239.47;5022411;28;19940;-72
2022/03/12 00:59:09;;;;;;;;;;;;;;;9.15;100.00;101243.16;5018751;28;19921;-72
2022/03/12 01:01:35;;;;;;;;;;;;;;;9.22;100.00;101251.81;5021258;28;19918;-72
2022/03/12 01:04:00;;;;;;;;;;;;;;;9.25;100.00;101254.38;5017417;28;19917;-71
2022/03/12 01:06:25;;;;;;;;;;;;;;;9.36;100.00;101254.06;5017184;28;20397;-72
2022/03/12 01:08:50;;;;;;;;;;;;;;;9.36;100.00;101254.06;5022733;28;19917;-71
2022/03/12 01:11:16;;;;;;;;;;;;;;;9.44;100.00;101249.38;5020024;28;19936;-72
2022/03/12 01:13:41;;;;;;;;;;;;;;;9.41;100.00;101244.19;5022772;28;19920;-72
2022/03/12 01:16:07;;;;;;;;;;;;;;;9.40;100.00;101245.94;5020103;28;20378;-72
2022/03/12 01:18:35;;;;;;;;;;;;;;;9.39;100.00;101244.22;5022134;28;20290;-72
2022/03/12 01:21:27;;;;;;;;;;;;;;;9.47;100.00;101242.19;5020257;28;20008;-72
2022/03/12 01:23:53;;;;;;;;;;;;;;;9.44;100.00;101250.22;5018144;28;20293;-72
2022/03/12 01:26:19;;;;;;;;;;;;;;;9.48;100.00;101243.94;5020016;28;20378;-72
2022/03/12 01:28:45;;;;;;;;;;;;;;;9.48;100.00;101248.34;5021987;28;19924;-72
2022/03/12 01:31:11;;;;;;;;;;;;;;;9.41;100.00;101252.13;5020878;28;19917;-72
2022/03/12 01:33:36;;;;;;;;;;;;;;;9.48;100.00;101243.06;5019345;28;19971;-72
2022/03/12 01:36:01;;;;;;;;;;;;;;;9.36;100.00;101243.44;5020410;28;19924;-72
2022/03/12 01:38:31;;;;;;;;;;;;;;;9.33;100.00;101242.63;5019108;28;19917;-72
2022/03/12 01:40:56;;;;;;;;;;;;;;;9.32;100.00;101247.97;5015404;28;19925;-72
2022/03/12 01:43:22;;;;;;;;;;;;;;;9.35;100.00;101247.88;5022499;28;19918;-72
2022/03/12 01:45:47;;;;;;;;;;;;;;;9.29;100.00;101248.94;5019106;28;19917;-72
2022/03/12 01:48:12;;;;;;;;;;;;;;;9.26;100.00;101245.50;5024999;28;19917;-71
2022/03/12 01:50:38;;;;;;;;;;;;;;;9.13;100.00;101250.31;5025994;28;19964;-72
2022/03/12 01:53:04;;;;;;;;;;;;;;;9.18;100.00;101251.06;5023976;28;20290;-70
2022/03/12 01:55:30;;;;;;;;;;;;;;;9.11;100.00;101259.22;5022255;28;20011;-71
2022/03/12 01:57:57;;;;;;;;;;;;;;;9.11;100.00;101257.44;5022596;28;20418;-70
2022/03/12 02:00:24;;;;;;;;;;;;;;;9.20;100.00;101265.09;5023201;28;19960;-69
2022/03/12 02:02:54;;;;;;;;;;;;;;;9.17;100.00;101259.06;5021364;28;19917;-70
2022/03/12 02:05:20;;;;;;;;;;;;;;;9.21;100.00;101261.56;5022828;28;19925;-71
2022/03/12 02:07:46;;;;;;;;;;;;;;;9.15;100.00;101261.72;5022450;28;19917;-70
2022/03/12 02:10:13;;;;;;;;;;;;;;;9.13;100.00;101265.34;5026248;28;19923;-70
2022/03/12 02:12:38;;;;;;;;;;;;;;;9.18;100.00;101260.78;5026366;28;20035;-70
2022/03/12 02:15:04;;;;;;;;;;;;;;;9.19;100.00;101258.09;5016821;28;19918;-70
2022/03/12 02:17:29;;;;;;;;;;;;;;;9.12;100.00;101251.22;5023452;28;19917;-70
2022/03/12 02:19:54;;;;;;;;;;;;;;;9.14;100.00;101260.00;5022568;28;19917;-71
2022/03/12 02:22:19;;;;;;;;;;;;;;;9.18;100.00;101271.38;5022657;28;20405;-70
2022/03/12 02:24:45;;;;;;;;;;;;;;;9.07;100.00;101262.88;5022731;28;19923;-71
2022/03/12 02:27:10;;;;;;;;;;;;;;;9.15;100.00;101267.03;5022617;28;19924;-71
2022/03/12 02:29:37;;;;;;;;;;;;;;;9.20;100.00;101265.09;5019889;28;19917;-71
2022/03/12 02:32:03;;;;;;;;;;;;;;;9.10;100.00;101276.91;5019839;28;19924;-71
2022/03/12 02:34:38;;;;;;;;;;;;;;;9.09;100.00;101269.00;5022589;28;19999;-71
2022/03/12 02:37:04;;;;;;;;;;;;;;;9.05;100.00;101273.53;5025314;28;19954;-71
2022/03/12 02:39:30;;;;;;;;;;;;;;;9.02;100.00;101272.75;5021483;28;19917;-72
2022/03/12 02:41:56;;;;;;;;;;;;;;;8.88;100.00;101265.22;5022432;28;19921;-71
2022/03/12 02:44:22;;;;;;;;;;;;;;;8.80;100.00;101269.84;5022792;28;19917;-71
2022/03/12 02:47:06;;;;;;;;;;;;;;;8.82;100.00;101268.03;5023578;28;19921;-71
2022/03/12 02:49:36;;;;;;;;;;;;;;;8.71;100.00;101274.53;5024040;28;19922;-71
2022/03/12 02:52:01;;;;;;;;;;;;;;;8.75;100.00;101276.19;5019835;28;19921;-71
2022/03/12 02:54:26;;;;;;;;;;;;;;;8.77;100.00;101277.91;5019488;28;19922;-72
2022/03/12 02:56:55;;;;;;;;;;;;;;;8.89;100.00;101285.47;5020774;28;20283;-71
2022/03/12 02:59:40;;;;;;;;;;;;;;;8.94;100.00;101280.03;5024784;28;19944;-71
2022/03/12 03:02:08;;;;;;;;;;;;;;;9.01;100.00;101277.16;5022036;28;19924;-71
2022/03/12 03:04:35;;;;;;;;;;;;;;;9.19;100.00;101275.75;5024770;28;20336;-71
2022/03/12 03:10:03;;;;;;;;;;;;;;;9.32;100.00;101288.59;5025750;28;20280;-71
2022/03/12 03:12:29;;;;;;;;;;;;;;;9.42;100.00;101291.84;5004090;28;19922;-71
2022/03/12 03:14:54;;;;;;;;;;;;;;;9.52;100.00;101298.59;5020027;28;19964;-71
2022/03/12 03:17:20;;;;;;;;;;;;;;;9.53;100.00;101297.69;5021803;28;19917;-71
2022/03/12 03:19:45;;;;;;;;;;;;;;;9.59;100.00;101300.16;5021460;28;20440;-71
2022/03/12 03:22:11;;;;;;;;;;;;;;;9.63;100.00;101312.38;5024455;28;20008;-70
2022/03/12 03:24:36;;;;;;;;;;;;;;;9.63;100.00;101311.53;5021753;28;19964;-71
2022/03/12 03:27:01;;;;;;;;;;;;;;;9.69;100.00;101306.03;5021892;28;19922;-71
2022/03/12 03:29:29;;;;;;;;;;;;;;;9.72;100.00;101308.56;5029220;28;19921;-71
2022/03/12 03:31:55;;;;;;;;;;;;;;;9.82;100.00;101302.03;5018672;28;19924;-71
2022/03/12 03:39:30;;;;;;;;;;;;;;;9.84;100.00;101324.09;5142040;23;19926;-72
2022/03/12 03:41:55;;;;;;;;;;;;;;;9.82;100.00;101325.91;4983809;28;19922;-72
2022/03/12 03:44:26;;;;;;;;;;;;;;;9.79;100.00;101318.94;4989420;28;20283;-72
2022/03/12 03:46:51;;;;;;;;;;;;;;;9.74;100.00;101322.66;4985210;28;19918;-71
2022/03/12 03:49:16;;;;;;;;;;;;;;;9.71;100.00;101323.63;4983037;28;20466;-71
2022/03/12 03:54:17;;;;;;;;;;;;;;;9.60;100.00;101333.69;2336431;23;19926;-70
2022/03/12 03:56:43;;;;;;;;;;;;;;;9.55;100.00;101324.16;4986756;28;19930;-70
2022/03/12 03:59:08;;;;;;;;;;;;;;;9.46;100.00;101337.66;4991014;28;20366;-70
2022/03/12 04:01:39;;;;;;;;;;;;;;;9.47;100.00;101336.78;4987879;28;20021;-70
2022/03/12 04:04:14;;;;;;;;;;;;;;;9.44;100.00;101335.06;4983055;28;19945;-70
2022/03/12 04:06:40;;;;;;;;;;;;;;;9.37;100.00;101332.66;4984765;28;19969;-70
2022/03/12 04:09:06;;;;;;;;;;;;;;;9.29;100.00;101347.03;4981897;28;20325;-70
2022/03/12 04:11:33;;;;;;;;;;;;;;;9.28;100.00;101347.06;4983307;28;19957;-70
2022/03/12 04:13:58;;;;;;;;;;;;;;;9.26;100.00;101355.03;4983701;28;20326;-70
2022/03/12 04:16:24;;;;;;;;;;;;;;;9.25;100.00;101353.31;4985911;28;19918;-70
2022/03/12 04:18:49;;;;;;;;;;;;;;;9.27;100.00;101342.66;4981258;28;19918;-70
2022/03/12 04:21:16;;;;;;;;;;;;;;;9.16;100.00;101358.88;4980518;28;19924;-70
2022/03/12 04:23:41;;;;;;;;;;;;;;;9.13;100.00;101372.22;4985856;28;20004;-70
2022/03/12 04:26:07;;;;;;;;;;;;;;;9.09;100.00;101361.75;4986622;28;19973;-70
2022/03/12 04:28:32;;;;;;;;;;;;;;;9.14;100.00;101371.28;4985213;28;19926;-70
2022/03/12 04:31:02;;;;;;;;;;;;;;;9.06;100.00;101372.44;4984340;28;20008;-70
2022/03/12 04:33:29;;;;;;;;;;;;;;;9.09;100.00;101375.84;4982672;28;20012;-70
2022/03/12 04:35:54;;;;;;;;;;;;;;;9.05;100.00;101381.28;4984775;28;19922;-70
2022/03/12 04:38:20;;;;;;;;;;;;;;;9.07;100.00;101380.34;4984673;28;19918;-70
2022/03/12 04:40:46;;;;;;;;;;;;;;;9.06;100.00;101370.63;4985972;28;19918;-70
2022/03/12 04:43:12;;;;;;;;;;;;;;;9.01;100.00;101385.78;4985530;28;19958;-70
2022/03/12 04:45:39;;;;;;;;;;;;;;;9.10;100.00;101385.56;4983847;28;19977;-70
2022/03/12 04:48:04;;;;;;;;;;;;;;;9.04;100.00;101391.00;4984843;28;19925;-70
2022/03/12 04:50:30;;;;;;;;;;;;;;;9.10;100.00;101384.69;4983502;28;19918;-70
2022/03/12 04:52:59;;;;;;;;;;;;;;;9.04;100.00;101388.34;4984543;28;20302;-70
2022/03/12 04:55:26;;;;;;;;;;;;;;;9.03;100.00;101389.28;4970247;28;19923;-70
2022/03/12 04:57:52;;;;;;;;;;;;;;;8.98;100.00;101388.53;4972713;28;20009;-70
2022/03/12 05:00:17;;;;;;;;;;;;;;;8.97;100.00;101389.44;4975106;28;19920;-71
2022/03/12 05:02:43;;;;;;;;;;;;;;;8.90;100.00;101387.88;4969594;28;19923;-71
2022/03/12 05:05:12;;;;;;;;;;;;;;;8.88;100.00;101396.78;4957817;29;20434;-71
2022/03/12 05:07:38;;;;;;;;;;;;;;;8.93;100.00;101397.53;4957528;29;19958;-71
2022/03/12 05:10:07;;;;;;;;;;;;;;;8.95;100.00;101401.00;4956893;29;19946;-71
2022/03/12 05:12:33;;;;;;;;;;;;;;;8.93;100.00;101406.34;4963614;28;19922;-71
2022/03/12 05:14:58;;;;;;;;;;;;;;;8.88;100.00;101407.38;4976202;28;19969;-70
2022/03/12 05:17:24;;;;;;;;;;;;;;;8.89;100.00;101404.69;4977176;28;19922;-70
2022/03/12 05:19:49;;;;;;;;;;;;;;;8.88;100.00;101402.06;4977055;28;19918;-71
2022/03/12 05:22:15;;;;;;;;;;;;;;;8.86;100.00;101404.75;4980332;28;19933;-70
2022/03/12 05:24:40;;;;;;;;;;;;;;;8.84;100.00;101413.69;4996635;28;19922;-70
2022/03/12 05:27:07;;;;;;;;;;;;;;;8.71;100.00;101406.94;4979687;28;19929;-70
2022/03/12 05:29:34;;;;;;;;;;;;;;;8.63;100.00;101409.81;4981036;28;19922;-71
2022/03/12 05:31:59;;;;;;;;;;;;;;;8.62;100.00;101407.19;4980832;28;20299;-71
2022/03/12 05:34:24;;;;;;;;;;;;;;;8.55;100.00;101417.06;4979005;28;19945;-70
2022/03/12 05:36:50;;;;;;;;;;;;;;;8.47;100.00;101419.03;4995721;28;19918;-70
2022/03/12 05:39:15;;;;;;;;;;;;;;;8.50;100.00;101412.78;4981912;28;20367;-70
2022/03/12 05:41:44;;;;;;;;;;;;;;;8.44;100.00;101426.19;4980300;28;20033;-70
2022/03/12 05:44:14;;;;;;;;;;;;;;;8.35;100.00;101429.91;4980692;28;19918;-71
2022/03/12 05:46:39;;;;;;;;;;;;;;;8.42;100.00;101427.97;4982430;28;19924;-71
2022/03/12 05:49:05;;;;;;;;;;;;;;;8.50;100.00;101437.47;4995967;28;20009;-70
2022/03/12 05:51:31;;;;;;;;;;;;;;;8.38;100.00;101443.09;4979066;28;19918;-71
2022/03/12 05:53:57;;;;;;;;;;;;;;;8.33;100.00;101439.69;4980383;28;19945;-71
2022/03/12 05:56:22;;;;;;;;;;;;;;;8.42;100.00;101435.91;4978964;28;19922;-70
2022/03/12 05:58:48;;;;;;;;;;;;;;;8.43;100.00;101435.88;4994505;28;20438;-70
2022/03/12 06:01:13;;;;;;;;;;;;;;;8.50;100.00;101436.59;4978637;28;19922;-71
2022/03/12 06:03:38;;;;;;;;;;;;;;;8.45;100.00;101442.00;4978935;28;19925;-71
2022/03/12 06:06:04;;;;;;;;;;;;;;;8.43;100.00;101442.97;4979405;28;19918;-70
2022/03/12 06:08:29;;;;;;;;;;;;;;;8.47;100.00;101455.22;4995592;28;19919;-71
2022/03/12 06:10:55;;;;;;;;;;;;;;;8.52;100.00;101446.28;4979430;28;19941;-70
2022/03/12 06:13:23;;;;;;;;;;;;;;;8.61;100.00;101445.16;4979407;28;19918;-70
2022/03/12 06:15:52;;;;;;;;;;;;;;;8.55;100.00;101451.50;4979868;28;19922;-71
2022/03/12 06:18:17;;;;;;;;;;;;;;;8.56;100.00;101445.28;4981102;28;20379;-71
2022/03/12 06:20:43;;;;;;;;;;;;;;;8.55;100.00;101451.50;4979201;28;19961;-71
2022/03/12 06:23:08;;;;;;;;;;;;;;;8.51;100.00;101455.09;4976912;28;19970;-74
2022/03/12 06:25:34;;;;;;;;;;;;;;;8.53;100.00;101460.34;4979658;28;20383;-71
2022/03/12 06:28:02;;;;;;;;;;;;;;;8.68;100.00;101460.00;4981467;28;19925;-70
2022/03/12 06:30:28;;;;;;;;;;;;;;;8.68;100.00;101460.84;4979155;28;19919;-70
2022/03/12 06:32:57;;;;;;;;;;;;;;;8.63;100.00;101462.75;4971541;28;20295;-70
2022/03/12 06:35:24;;;;;;;;;;;;;;;8.68;100.00;101466.13;4969695;28;19930;-70
2022/03/12 06:37:49;;;;;;;;;;;;;;;8.61;100.00;101463.69;4977997;28;19994;-69
2022/03/12 06:40:15;;;;;;;;;;;;;;;8.63;100.00;101465.41;4977498;28;20511;-70
2022/03/12 06:42:44;;;;;;;;;;;;;;;8.74;100.00;101471.31;4977641;28;20437;-69
2022/03/12 06:45:10;;;;;;;;;;;;;;;8.70;100.00;101463.44;4966635;28;19923;-70
2022/03/12 06:47:36;;;;;;;;;;;;;;;8.66;100.00;101461.81;4956199;28;20031;-70
2022/03/12 06:50:03;;;;;;;;;;;;;;;8.72;100.00;101469.59;4973235;28;20057;-70
2022/03/12 06:52:29;;;;;;;;;;;;;;;8.75;100.00;101472.16;4975117;28;19928;-70
2022/03/12 06:54:55;;;;;;;;;;;;;;;8.72;100.00;101481.06;4979063;28;20308;-74
2022/03/12 06:57:21;;;;;;;;;;;;;;;8.77;100.00;101481.81;4976441;28;19922;-69
2022/03/12 06:59:46;;;;;;;;;;;;;;;8.86;100.00;101486.88;4973550;28;19926;-70
2022/03/12 07:02:11;;;;;;;;;;;;;;;8.88;100.00;101481.53;4975345;28;19925;-70
2022/03/12 07:04:36;;;;;;;;;;;;;;;8.91;100.00;101490.28;4975157;28;20331;-69
2022/03/12 07:07:02;;;;;;;;;;;;;;;9.01;100.00;101486.47;4975091;28;19922;-70
2022/03/12 07:09:27;;;;;;;;;;;;;;;8.99;100.00;101484.78;4960821;28;20267;-70
2022/03/12 07:11:55;;;;;;;;;;;;;;;9.13;100.00;101495.88;4976141;28;20016;-70
2022/03/12 07:14:20;;;;;;;;;;;;;;;9.14;100.00;101495.84;4969195;28;19919;-71
2022/03/12 07:16:45;;;;;;;;;;;;;;;9.24;100.00;101507.94;4975039;28;19925;-71
2022/03/12 07:19:10;;;;;;;;;;;;;;;9.22;100.00;101507.13;4973926;28;19918;-71
2022/03/12 07:21:36;;;;;;;;;;;;;;;9.33;100.00;101510.34;4972706;28;19918;-71
2022/03/12 07:24:01;;;;;;;;;;;;;;;9.40;100.00;101515.47;4971585;28;19925;-71
2022/03/12 07:26:26;;;;;;;;;;;;;;;9.44;100.00;101518.00;4972257;28;19981;-71
2022/03/12 07:28:51;;;;;;;;;;;;;;;9.46;100.00;101516.19;4988885;28;19922;-70
2022/03/12 07:31:17;;;;;;;;;;;;;;;9.38;100.00;101520.81;4966755;28;19922;-70
2022/03/12 07:33:42;;;;;;;;;;;;;;;9.45;100.00;101534.78;4971858;28;20368;-70
2022/03/12 07:36:07;;;;;;;;;;;;;;;9.52;100.00;101533.72;4967007;28;19965;-70
2022/03/12 07:38:32;;;;;;;;;;;;;;;9.43;100.00;101533.94;4967657;28;20346;-71
2022/03/12 07:40:58;;;;;;;;;;;;;;;9.49;100.00;101534.66;4972422;28;19922;-71
2022/03/12 07:43:23;;;;;;;;;;;;;;;9.58;100.00;101539.69;4971800;28;19918;-69
2022/03/12 07:45:48;;;;;;;;;;;;;;;9.56;100.00;101538.91;4974741;28;19918;-69
2022/03/12 07:48:14;;;;;;;;;;;;;;;9.51;100.00;101540.81;4971528;28;20353;-69
2022/03/12 07:50:39;;;;;;;;;;;;;;;9.53;100.00;101551.38;4969889;28;20299;-69
2022/03/12 07:53:05;;;;;;;;;;;;;;;9.54;100.00;101558.41;4967432;28;19945;-69
2022/03/12 07:55:30;;;;;;;;;;;;;;;9.53;100.00;101561.97;4969195;28;19996;-70
2022/03/12 07:57:55;;;;;;;;;;;;;;;9.60;100.00;101560.88;4968722;28;19918;-69
2022/03/12 08:00:20;;;;;;;;;;;;;;;9.60;100.00;101569.72;4967826;28;20371;-70
2022/03/12 08:02:46;;;;;;;;;;;;;;;9.66;100.00;101572.19;4974333;28;20403;-70
2022/03/12 08:05:16;;;;;;;;;;;;;;;9.69;100.00;101558.00;4967642;28;19945;-70
2022/03/12 08:07:41;;;;;;;;;;;;;;;9.73;100.00;101576.44;4974252;28;19918;-70
2022/03/12 08:10:08;;;;;;;;;;;;;;;9.82;100.00;101573.50;4971392;28;20065;-71
2022/03/12 08:12:35;;;;;;;;;;;;;;;9.73;100.00;101565.81;4978054;28;19930;-70
2022/03/12 08:15:03;;;;;;;;;;;;;;;9.87;100.00;101573.38;4954500;29;19982;-71
2022/03/12 08:17:29;;;;;;;;;;;;;;;9.92;100.00;101580.31;4955690;29;19918;-69
2022/03/12 08:19:54;;;;;;;;;;;;;;;9.98;100.00;101579.25;4964527;29;19953;-70
2022/03/12 08:22:20;;;;;;;;;;;;;;;10.03;100.00;101580.88;4970299;29;19929;-70
2022/03/12 08:24:45;;;;;;;;;;;;;;;10.07;100.00;101585.22;4970887;29;19918;-71
2022/03/12 08:27:14;;;;;;;;;;;;;;;10.11;100.00;101594.84;4969166;28;19926;-71
2022/03/12 08:29:39;;;;;;;;;;;;;;;10.12;100.00;101587.72;4979715;28;20350;-72
2022/03/12 08:32:07;;;;;;;;;;;;;;;10.17;100.00;101592.00;4970973;28;19972;-74
2022/03/12 08:34:32;;;;;;;;;;;;;;;10.24;100.00;101598.84;4978439;28;20393;-74
2022/03/12 08:36:57;;;;;;;;;;;;;;;10.27;100.00;101590.84;4998603;28;19925;-71
2022/03/12 08:39:23;;;;;;;;;;;;;;;10.37;100.00;101600.25;4974521;28;19964;-70
2022/03/12 08:41:48;;;;;;;;;;;;;;;10.50;100.00;101591.00;4975014;28;19997;-70
2022/03/12 08:44:13;;;;;;;;;;;;;;;10.50;100.00;101595.44;4974953;28;19927;-70
2022/03/12 08:46:42;;;;;;;;;;;;;;;10.51;100.00;101603.34;4973539;28;19918;-70
2022/03/12 08:49:07;;;;;;;;;;;;;;;10.57;100.00;101592.53;4973215;28;19929;-71
2022/03/12 08:51:32;;;;;;;;;;;;;;;10.53;100.00;101608.63;4973215;28;19918;-71
2022/03/12 08:53:58;;;;;;;;;;;;;;;10.55;100.00;101607.66;4974385;28;19922;-70
2022/03/12 08:56:23;;;;;;;;;;;;;;;10.63;100.00;101602.13;4975563;28;19972;-72
2022/03/12 08:58:48;;;;;;;;;;;;;;;10.69;100.00;101607.25;4977220;28;20030;-71
2022/03/12 09:01:14;;;;;;;;;;;;;;;10.84;100.00;101604.13;4976329;28;19919;-71
2022/03/12 09:03:39;;;;;;;;;;;;;;;11.13;100.00;101600.50;4978350;28;20328;-71
2022/03/12 09:06:05;;;;;;;;;;;;;;;11.02;100.00;101606.16;4978220;28;19925;-71
2022/03/12 09:08:31;;;;;;;;;;;;;;;10.91;100.00;101596.78;4977231;28;20012;-71
2022/03/12 09:10:57;;;;;;;;;;;;;;;10.83;100.00;101605.91;4978509;28;20383;-72
2022/03/12 09:13:22;;;;;;;;;;;;;;;10.88;100.00;101596.88;4978268;28;19922;-71
2022/03/12 09:15:48;;;;;;;;;;;;;;;10.77;100.00;101595.47;4978460;28;19934;-71
2022/03/12 09:18:13;;;;;;;;;;;;;;;10.93;100.00;101598.50;4978422;28;19918;-71
2022/03/12 09:20:43;;;;;;;;;;;;;;;11.12;100.00;101590.78;4978541;28;19953;-71
2022/03/12 09:23:09;;;;;;;;;;;;;;;11.15;100.00;101588.91;4993176;28;19918;-72
2022/03/12 09:25:34;;;;;;;;;;;;;;;11.24;100.00;101593.91;4976699;28;20379;-71
2022/03/12 09:27:59;;;;;;;;;;;;;;;11.07;100.00;101612.22;4977969;28;19934;-72
2022/03/12 09:30:25;;;;;;;;;;;;;;;11.13;100.00;101592.50;4976839;28;20005;-72
2022/03/12 09:32:50;;;;;;;;;;;;;;;11.34;100.00;101597.13;4976649;28;20012;-71
2022/03/12 09:35:15;;;;;;;;;;;;;;;11.19;100.00;101610.94;4992650;28;19918;-71
2022/03/12 09:37:41;;;;;;;;;;;;;;;11.37;100.00;101605.88;4977976;28;19918;-71
2022/03/12 09:40:07;;;;;;;;;;;;;;;11.83;100.00;101598.06;4992969;28;19918;-71
2022/03/12 09:42:32;;;;;;;;;;;;;;;12.08;100.00;101592.72;4977663;28;20357;-71
2022/03/12 09:44:59;;;;;;;;;;;;;;;12.10;100.00;101605.03;4976320;28;20375;-72
2022/03/12 09:47:24;;;;;;;;;;;;;;;12.13;100.00;101604.94;4992665;28;20004;-72
2022/03/12 09:49:49;;;;;;;;;;;;;;;12.27;100.00;101605.28;4977714;28;20387;-72
2022/03/12 09:52:15;;;;;;;;;;;;;;;11.95;100.00;101610.06;4976899;28;19918;-72
2022/03/12 09:54:41;;;;;;;;;;;;;;;11.73;100.00;101609.09;4976626;28;19949;-72
2022/03/12 09:57:06;;;;;;;;;;;;;;;12.17;100.00;101609.22;4976322;28;19918;-72
2022/03/12 09:59:32;;;;;;;;;;;;;;;12.28;100.00;101623.03;4976066;28;20445;-72
2022/03/12 10:01:57;;;;;;;;;;;;;;;12.42;100.00;101619.84;4977651;28;19955;-71
2022/03/12 10:04:23;;;;;;;;;;;;;;;12.48;100.00;101616.09;4976372;28;19922;-72
2022/03/12 10:06:48;;;;;;;;;;;;;;;12.37;100.00;101634.25;4974965;28;19972;-70
2022/03/12 10:09:14;;;;;;;;;;;;;;;12.09;100.00;101631.72;4976227;28;19918;-72
2022/03/12 10:11:41;;;;;;;;;;;;;;;11.63;100.00;101631.66;4977546;28;20354;-71
2022/03/12 10:14:07;;;;;;;;;;;;;;;11.45;100.00;101634.88;4976082;28;19924;-71
2022/03/12 10:16:32;;;;;;;;;;;;;;;11.43;100.00;101631.38;4977385;28;19922;-71
2022/03/12 10:18:57;;;;;;;;;;;;;;;11.36;100.00;101633.38;4992511;28;19941;-71
2022/03/12 10:21:23;;;;;;;;;;;;;;;11.46;100.00;101637.47;4977110;28;19925;-72
2022/03/12 10:23:48;;;;;;;;;;;;;;;11.46;100.00;101637.47;4977611;28;19966;-72
2022/03/12 10:26:14;;;;;;;;;;;;;;;11.75;100.00;101633.88;4977197;28;20008;-71
2022/03/12 10:28:40;;;;;;;;;;;;;;;11.49;100.00;101618.75;4976077;28;20344;-71
2022/03/12 10:31:07;;;;;;;;;;;;;;;11.71;100.00;101626.91;4977124;28;20014;-71
2022/03/12 10:33:33;;;;;;;;;;;;;;;12.00;100.00;101637.41;4975815;28;19954;-72
2022/03/12 10:36:07;;;;;;;;;;;;;;;12.03;100.00;101637.28;4976915;28;20027;-71
2022/03/12 10:38:37;;;;;;;;;;;;;;;12.22;100.00;101633.91;4975751;28;19926;-72
2022/03/12 10:41:04;;;;;;;;;;;;;;;12.54;100.00;101629.16;4975545;28;19924;-71
2022/03/12 10:43:33;;;;;;;;;;;;;;;12.52;100.00;101631.88;4975655;28;19973;-71
2022/03/12 10:46:00;;;;;;;;;;;;;;;12.71;100.00;101640.03;4975543;28;19953;-71
2022/03/12 10:48:27;;;;;;;;;;;;;;;13.01;100.00;101637.09;4976851;28;19918;-71
2022/03/12 10:50:55;;;;;;;;;;;;;;;12.88;100.00;101640.25;4975568;28;19997;-71
2022/03/12 10:53:22;;;;;;;;;;;;;;;12.84;100.00;101635.97;4976425;28;19933;-71
2022/03/12 10:55:49;;;;;;;;;;;;;;;12.50;100.00;101633.72;4975183;28;20303;-71
2022/03/12 10:58:25;;;;;;;;;;;;;;;13.07;100.00;101627.94;4975125;28;19969;-71
2022/03/12 11:00:52;;;;;;;;;;;;;;;13.95;100.00;101636.63;4976370;28;20387;-70
2022/03/12 11:03:24;;;;;;;;;;;;;;;14.48;100.00;101629.75;4975075;28;19918;-71
2022/03/12 11:05:51;;;;;;;;;;;;;;;14.22;100.00;101646.09;4974952;28;19918;-71
2022/03/12 11:08:22;;;;;;;;;;;;;;;15.01;100.00;101653.97;4976155;28;19933;-71
2022/03/12 11:10:57;;;;;;;;;;;;;;;15.30;100.00;101651.63;4976545;28;19924;-71
2022/03/12 11:13:27;;;;;;;;;;;;;;;15.48;100.00;101662.38;4976340;28;19933;-72
2022/03/12 11:16:05;;;;;;;;;;;;;;;16.25;100.00;101653.88;4975058;28;20032;-71
2022/03/12 11:18:31;;;;;;;;;;;;;;;16.50;100.00;101657.00;4975886;28;19927;-71
2022/03/12 11:20:57;;;;;;;;;;;;;;;14.73;100.00;101664.25;4974893;28;19922;-71
2022/03/12 11:23:27;;;;;;;;;;;;;;;15.61;100.00;101655.47;4975335;28;20460;-72
2022/03/12 11:26:07;;;;;;;;;;;;;;;16.07;100.00;101669.09;4975137;28;19980;-71
2022/03/12 11:28:35;;;;;;;;;;;;;;;16.01;100.00;101663.22;4975206;28;20330;-71
2022/03/12 11:31:01;;;;;;;;;;;;;;;15.16;100.00;101669.28;4974781;28;19934;-71
2022/03/12 11:33:27;;;;;;;;;;;;;;;15.22;100.00;101659.16;4974541;28;19918;-71
2022/03/12 11:36:00;;;;;;;;;;;;;;;15.66;100.00;101654.31;4976130;28;20378;-72
2022/03/12 11:38:27;;;;;;;;;;;;;;;16.88;100.00;101666.50;4982637;28;19925;-71
2022/03/12 11:41:02;;;;;;;;;;;;;;;17.59;100.00;101671.34;4976633;28;19922;-72
2022/03/12 11:43:31;;;;;;;;;;;;;;;16.97;100.00;101682.09;4966651;28;19922;-71
2022/03/12 11:45:59;;;;;;;;;;;;;;;16.65;100.00;101674.97;4964935;28;19980;-74
2022/03/12 11:48:26;;;;;;;;;;;;;;;16.84;100.00;101663.13;4965925;28;20021;-71
2022/03/12 11:50:51;;;;;;;;;;;;;;;15.90;100.00;101652.19;4959319;28;19919;-70
2022/03/12 11:53:17;;;;;;;;;;;;;;;15.49;100.00;101656.94;4961103;28;19926;-70
2022/03/12 11:55:42;;;;;;;;;;;;;;;15.33;100.00;101647.94;4976255;28;19926;-70
2022/03/12 11:58:08;;;;;;;;;;;;;;;15.31;100.00;101656.06;4975053;28;19944;-70
2022/03/12 12:00:34;;;;;;;;;;;;;;;15.87;100.00;101655.03;4976419;28;19918;-69
2022/03/12 12:02:59;;;;;;;;;;;;;;;15.71;100.00;101646.91;4969736;28;19918;-69
2022/03/12 12:05:27;;;;;;;;;;;;;;;17.26;100.00;101651.78;4972878;28;20014;-69
2022/03/12 12:07:55;;;;;;;;;;;;;;;18.55;100.00;101661.06;4955556;29;19928;-69
2022/03/12 12:10:30;;;;;;;;;;;;;;;19.82;100.00;101654.41;4957539;29;19961;-68
2022/03/12 12:12:56;;;;;;;;;;;;;;;19.33;100.00;101654.13;4975950;28;20299;-69
2022/03/12 12:15:46;;;;;;;;;;;;;;;19.57;100.00;101647.09;4963320;28;19925;-69
2022/03/12 12:18:10;;;;;;;;;;;;;;;19.01;100.00;101670.59;4956168;29;19918;-69
2022/03/12 12:20:36;;;;;;;;;;;;;;;18.27;100.00;101649.28;4961698;28;20391;-69
2022/03/12 12:23:02;;;;;;;;;;;;;;;19.30;100.00;101653.47;4975195;28;19965;-69
2022/03/12 12:25:34;;;;;;;;;;;;;;;18.83;100.00;101655.66;4976237;28;19926;-71
2022/03/12 12:28:00;;;;;;;;;;;;;;;18.90;100.00;101656.97;4974915;28;19918;-71
2022/03/12 12:30:38;;;;;;;;;;;;;;;19.99;100.00;101654.09;4973219;28;20000;-70
2022/03/12 12:33:15;;;;;;;;;;;;;;;22.04;100.00;101647.91;4976202;28;20021;-70
2022/03/12 12:35:41;;;;;;;;;;;;;;;20.83;100.00;101649.91;4975299;28;19926;-70
2022/03/12 12:38:10;;;;;;;;;;;;;;;20.34;100.00;101651.69;4974943;28;19918;-70
2022/03/12 12:40:43;;;;;;;;;;;;;;;19.33;100.00;101654.13;4973799;28;19942;-70